createdAt,value
2019-03-24T00:01:02.646Z,29.85
2019-03-24T00:03:31.230Z,28.27
2019-03-24T00:05:59.795Z,27.05
2019-03-24T00:08:28.703Z,29.25
2019-03-24T00:10:57.695Z,28.55
2019-03-24T00:13:26.711Z,38.95
2019-03-24T00:15:55.434Z,33.53
2019-03-24T00:18:24.000Z,29.02
2019-03-24T00:20:52.655Z,30.57
2019-03-24T00:23:21.254Z,29.20
2019-03-24T00:25:49.980Z,30.60
2019-03-24T00:28:18.564Z,27.60
2019-03-24T00:30:47.198Z,33.20
2019-03-24T00:33:15.885Z,35.30
2019-03-24T00:35:45.084Z,34.67
2019-03-24T00:38:13.604Z,28.85
2019-03-24T00:40:42.157Z,28.92
2019-03-24T00:43:10.741Z,39.25
2019-03-24T00:45:39.317Z,30.15
2019-03-24T00:48:07.985Z,28.73
2019-03-24T00:50:36.945Z,22.35
2019-03-24T00:53:05.682Z,27.67
2019-03-24T00:55:34.246Z,32.80
2019-03-24T00:58:02.976Z,23.85
2019-03-24T01:00:46.138Z,25.68
2019-03-24T01:03:15.365Z,30.48
2019-03-24T01:05:44.591Z,29.20
2019-03-24T01:08:13.619Z,26.75
2019-03-24T01:10:42.341Z,28.67
2019-03-24T01:13:12.572Z,40.48
2019-03-24T01:15:47.722Z,25.32
2019-03-24T01:18:11.522Z,28.92
2019-03-24T01:20:40.162Z,32.85
2019-03-24T01:23:08.898Z,24.15
2019-03-24T01:25:37.480Z,28.73
2019-03-24T01:28:06.288Z,26.42
2019-03-24T01:30:35.026Z,25.12
2019-03-24T01:33:03.951Z,32.20
2019-03-24T01:35:32.619Z,22.45
2019-03-24T01:38:01.503Z,25.05
2019-03-24T01:40:30.513Z,23.15
2019-03-24T01:42:59.234Z,22.93
2019-03-24T01:45:28.177Z,24.57
2019-03-24T01:47:56.697Z,24.15
2019-03-24T01:50:25.332Z,24.18
2019-03-24T01:52:53.980Z,25.48
2019-03-24T01:55:22.556Z,29.20
2019-03-24T01:57:51.138Z,32.58
2019-03-24T02:00:19.845Z,23.50
2019-03-24T02:02:48.501Z,27.25
2019-03-24T02:05:17.134Z,22.17
2019-03-24T02:07:46.089Z,31.55
2019-03-24T02:10:15.129Z,20.70
2019-03-24T02:12:43.722Z,32.50
2019-03-24T02:15:12.644Z,23.35
2019-03-24T02:17:41.298Z,21.87
2019-03-24T02:20:10.788Z,31.25
2019-03-24T02:22:39.354Z,25.52
2019-03-24T02:25:08.791Z,33.05
2019-03-24T02:27:37.666Z,32.05
2019-03-24T02:30:08.396Z,27.02
2019-03-24T02:32:37.126Z,26.35
2019-03-24T02:35:07.426Z,32.60
2019-03-24T02:37:36.131Z,22.80
2019-03-24T02:40:07.463Z,20.82
2019-03-24T02:42:35.995Z,23.52
2019-03-24T02:45:06.727Z,29.92
2019-03-24T02:47:35.292Z,30.00
2019-03-24T02:50:04.801Z,27.07
2019-03-24T02:52:33.356Z,35.00
2019-03-24T02:55:02.018Z,30.88
2019-03-24T02:57:30.946Z,30.80
2019-03-24T02:59:59.592Z,37.93
2019-03-24T03:02:28.170Z,35.78
2019-03-24T03:04:57.039Z,33.83
2019-03-24T03:07:25.701Z,32.33
2019-03-24T03:09:54.347Z,28.85
2019-03-24T03:12:23.296Z,37.67
2019-03-24T03:14:51.914Z,35.33
2019-03-24T03:17:20.466Z,34.40
2019-03-24T03:19:49.052Z,32.15
2019-03-24T03:22:17.640Z,30.57
2019-03-24T03:24:46.218Z,30.12
2019-03-24T03:27:14.853Z,34.08
2019-03-24T03:29:43.442Z,29.02
2019-03-24T03:32:12.009Z,34.80
2019-03-24T03:34:40.634Z,30.43
2019-03-24T03:37:09.187Z,38.50
2019-03-24T03:39:37.767Z,31.10
2019-03-24T03:42:06.562Z,30.70
2019-03-24T03:44:35.466Z,31.85
2019-03-24T03:47:04.143Z,31.27
2019-03-24T03:49:32.733Z,37.33
2019-03-24T03:52:01.278Z,39.30
2019-03-24T03:54:30.207Z,38.17
2019-03-24T03:56:58.766Z,35.45
2019-03-24T03:59:27.325Z,42.60
2019-03-24T04:01:55.919Z,32.55
2019-03-24T04:04:24.473Z,42.25
2019-03-24T04:06:53.123Z,29.32
2019-03-24T04:09:21.676Z,34.58
2019-03-24T04:11:50.630Z,38.78
2019-03-24T04:14:19.185Z,43.75
2019-03-24T04:16:47.778Z,37.63
2019-03-24T04:19:16.324Z,31.52
2019-03-24T04:21:44.884Z,34.90
2019-03-24T04:24:13.455Z,39.60
2019-03-24T04:26:42.005Z,36.75
2019-03-24T04:29:10.657Z,36.42
2019-03-24T04:31:39.324Z,40.43
2019-03-24T04:34:07.889Z,34.43
2019-03-24T04:36:36.435Z,34.05
2019-03-24T04:39:06.931Z,39.38
2019-03-24T04:41:35.593Z,34.27
2019-03-24T04:44:04.226Z,35.13
2019-03-24T04:46:32.793Z,32.85
2019-03-24T04:49:01.306Z,39.30
2019-03-24T04:51:29.869Z,36.90
2019-03-24T04:53:58.543Z,32.48
2019-03-24T04:56:27.113Z,37.83
2019-03-24T04:58:55.704Z,36.40
2019-03-24T05:01:24.270Z,49.73
2019-03-24T05:03:53.229Z,38.85
2019-03-24T05:06:23.236Z,36.55
2019-03-24T05:08:52.251Z,46.45
2019-03-24T05:11:20.842Z,42.55
2019-03-24T05:13:49.410Z,45.10
2019-03-24T05:16:18.005Z,35.68
2019-03-24T05:18:46.583Z,40.40
2019-03-24T05:21:15.170Z,39.23
2019-03-24T05:23:46.094Z,44.60
2019-03-24T05:26:14.301Z,41.90
2019-03-24T05:28:42.866Z,41.85
2019-03-24T05:31:11.735Z,38.50
2019-03-24T05:33:40.667Z,45.03
2019-03-24T05:36:09.272Z,40.12
2019-03-24T05:38:37.854Z,39.73
2019-03-24T05:41:06.485Z,41.65
2019-03-24T05:43:35.052Z,40.45
2019-03-24T05:46:03.709Z,44.38
2019-03-24T05:48:32.707Z,50.00
2019-03-24T05:51:01.303Z,52.98
2019-03-24T05:53:29.859Z,46.77
2019-03-24T05:55:58.464Z,51.20
2019-03-24T05:58:27.302Z,48.30
2019-03-24T06:00:56.254Z,45.80
2019-03-24T06:03:24.914Z,49.67
2019-03-24T06:05:53.847Z,51.53
2019-03-24T06:08:22.506Z,53.50
2019-03-24T06:10:51.061Z,47.67
2019-03-24T06:13:19.653Z,56.77
2019-03-24T06:15:48.249Z,54.65
2019-03-24T06:18:17.181Z,51.35
2019-03-24T06:20:45.819Z,50.28
2019-03-24T06:23:14.688Z,45.08
2019-03-24T06:25:43.256Z,47.98
2019-03-24T06:28:11.818Z,44.55
2019-03-24T06:30:40.463Z,47.25
2019-03-24T06:33:09.029Z,49.90
2019-03-24T06:35:37.603Z,53.35
2019-03-24T06:38:06.248Z,46.28
2019-03-24T06:40:35.298Z,52.58
2019-03-24T06:43:03.941Z,50.08
2019-03-24T06:45:32.491Z,47.00
2019-03-24T06:48:01.137Z,41.10
2019-03-24T06:50:29.695Z,53.45
2019-03-24T06:52:58.997Z,47.40
2019-03-24T06:55:27.524Z,45.73
2019-03-24T06:57:56.109Z,40.43
2019-03-24T07:00:24.749Z,55.17
2019-03-24T07:02:53.335Z,43.60
2019-03-24T07:05:21.973Z,45.23
2019-03-24T07:07:50.578Z,39.88
2019-03-24T07:10:19.181Z,45.78
2019-03-24T07:12:47.843Z,45.78
2019-03-24T07:15:16.482Z,43.85
2019-03-24T07:17:45.460Z,46.85
2019-03-24T07:20:14.166Z,47.15
2019-03-24T07:22:43.066Z,42.80
2019-03-24T07:25:12.198Z,44.27
2019-03-24T07:27:40.771Z,38.70
2019-03-24T07:30:11.010Z,43.33
2019-03-24T07:32:39.941Z,42.03
2019-03-24T07:35:08.688Z,38.92
2019-03-24T07:37:37.262Z,35.92
2019-03-24T07:40:08.266Z,38.48
2019-03-24T07:42:36.830Z,35.17
2019-03-24T07:45:07.473Z,37.48
2019-03-24T07:47:36.120Z,30.60
2019-03-24T07:50:08.033Z,37.35
2019-03-24T07:52:36.953Z,24.90
2019-03-24T07:55:07.448Z,31.20
2019-03-24T07:57:36.185Z,32.63
2019-03-24T08:00:09.621Z,29.57
2019-03-24T08:02:38.211Z,29.75
2019-03-24T08:05:07.136Z,38.42
2019-03-24T08:07:35.730Z,31.52
2019-03-24T08:10:06.179Z,35.50
2019-03-24T08:12:35.052Z,26.55
2019-03-24T08:15:03.968Z,24.98
2019-03-24T08:17:32.550Z,25.80
2019-03-24T08:20:01.126Z,30.40
2019-03-24T08:22:30.009Z,27.35
2019-03-24T08:24:58.565Z,26.33
2019-03-24T08:27:27.157Z,27.47
2019-03-24T08:29:55.724Z,29.00
2019-03-24T08:32:24.772Z,28.70
2019-03-24T08:34:53.358Z,25.83
2019-03-24T08:37:22.087Z,29.23
2019-03-24T08:39:50.730Z,26.20
2019-03-24T08:42:19.457Z,32.50
2019-03-24T08:44:48.220Z,30.00
2019-03-24T08:47:16.818Z,26.93
2019-03-24T08:49:45.384Z,28.40
2019-03-24T08:52:14.405Z,38.83
2019-03-24T08:54:43.069Z,29.47
2019-03-24T08:57:11.623Z,26.67
2019-03-24T08:59:40.242Z,26.27
2019-03-24T09:02:08.905Z,28.90
2019-03-24T09:04:37.496Z,26.00
2019-03-24T09:07:06.192Z,20.97
2019-03-24T09:09:34.800Z,23.67
2019-03-24T09:12:03.358Z,22.43
2019-03-24T09:14:31.985Z,21.27
2019-03-24T09:17:00.561Z,15.17
2019-03-24T09:19:29.149Z,24.53
2019-03-24T09:21:57.721Z,17.77
2019-03-24T09:24:26.301Z,21.20
2019-03-24T09:26:54.950Z,19.10
2019-03-24T09:29:23.509Z,21.67
2019-03-24T09:31:52.174Z,22.10
2019-03-24T09:34:21.763Z,22.80
2019-03-24T09:36:50.362Z,18.57
2019-03-24T09:39:18.983Z,19.33
2019-03-24T09:41:47.659Z,16.03
2019-03-24T09:44:16.237Z,24.90
2019-03-24T09:46:44.845Z,13.53
2019-03-24T09:49:13.803Z,24.20
2019-03-24T09:51:42.673Z,22.43
2019-03-24T09:54:11.281Z,16.83
2019-03-24T09:56:39.874Z,15.83
2019-03-24T09:59:10.143Z,23.27
2019-03-24T10:01:38.795Z,22.67
2019-03-24T10:04:07.648Z,17.70
2019-03-24T10:06:36.226Z,19.93
2019-03-24T10:09:06.155Z,18.70
2019-03-24T10:11:35.094Z,22.33
2019-03-24T10:14:03.800Z,19.33
2019-03-24T10:16:32.451Z,17.73
2019-03-24T10:19:01.039Z,15.33
2019-03-24T10:21:29.618Z,17.50
2019-03-24T10:23:58.229Z,20.37
2019-03-24T10:26:26.779Z,20.90
2019-03-24T10:28:55.788Z,20.93
2019-03-24T10:31:24.501Z,20.90
2019-03-24T10:33:53.099Z,23.03
2019-03-24T10:36:21.678Z,20.87
2019-03-24T10:38:50.228Z,16.30
2019-03-24T10:41:18.921Z,17.60
2019-03-24T10:43:47.454Z,21.63
2019-03-24T10:46:17.607Z,24.27
2019-03-24T10:48:46.164Z,22.20
2019-03-24T10:51:14.770Z,23.93
2019-03-24T10:53:43.341Z,20.70
2019-03-24T10:56:11.929Z,18.13
2019-03-24T10:58:40.507Z,23.17
2019-03-24T11:01:09.135Z,18.90
2019-03-24T11:03:37.698Z,16.17
2019-03-24T11:06:06.346Z,22.30
2019-03-24T11:08:35.012Z,17.53
2019-03-24T11:11:03.691Z,19.43
2019-03-24T11:13:32.274Z,16.30
2019-03-24T11:16:01.187Z,18.03
2019-03-24T11:18:29.804Z,15.23
2019-03-24T11:20:58.374Z,12.17
2019-03-24T11:23:26.942Z,10.23
2019-03-24T11:25:55.572Z,13.07
2019-03-24T11:28:24.141Z,17.33
2019-03-24T11:30:53.404Z,17.07
2019-03-24T11:33:21.898Z,20.33
2019-03-24T11:35:50.504Z,18.13
2019-03-24T11:38:19.057Z,17.73
2019-03-24T11:40:48.005Z,18.03
2019-03-24T11:43:16.577Z,12.87
2019-03-24T11:45:45.229Z,14.57
2019-03-24T11:48:13.816Z,11.53
2019-03-24T11:50:42.421Z,15.67
2019-03-24T11:53:10.973Z,14.60
2019-03-24T11:55:39.633Z,12.27
2019-03-24T11:58:08.212Z,15.60
2019-03-24T12:00:38.228Z,14.13
2019-03-24T12:03:06.881Z,12.43
2019-03-24T12:05:35.626Z,13.17
2019-03-24T12:08:04.648Z,19.93
2019-03-24T12:10:33.319Z,16.43
2019-03-24T12:13:02.177Z,11.00
2019-03-24T12:15:30.907Z,14.13
2019-03-24T12:18:01.014Z,11.80
2019-03-24T12:20:29.615Z,12.77
2019-03-24T12:22:58.213Z,15.70
2019-03-24T12:25:26.791Z,16.53
2019-03-24T12:27:55.364Z,13.33
2019-03-24T12:30:24.612Z,14.63
2019-03-24T12:32:53.218Z,16.00
2019-03-24T12:35:24.187Z,12.80
2019-03-24T12:37:54.924Z,12.53
2019-03-24T12:40:23.489Z,14.90
2019-03-24T12:42:52.246Z,10.43
2019-03-24T12:45:20.967Z,14.80
2019-03-24T12:47:49.907Z,16.87
2019-03-24T12:50:18.558Z,12.20
2019-03-24T12:52:47.126Z,12.03
2019-03-24T12:55:15.762Z,16.93
2019-03-24T12:57:44.360Z,14.50
2019-03-24T13:00:14.830Z,14.27
2019-03-24T13:02:43.422Z,15.57
2019-03-24T13:05:13.065Z,14.00
2019-03-24T13:07:41.707Z,11.00
2019-03-24T13:10:11.558Z,13.63
2019-03-24T13:12:40.133Z,14.67
2019-03-24T13:15:09.155Z,14.23
2019-03-24T13:17:37.886Z,17.07
2019-03-24T13:20:20.101Z,15.67
2019-03-24T13:22:40.062Z,15.63
2019-03-24T13:25:09.263Z,14.00
2019-03-24T13:27:37.913Z,9.30
2019-03-24T13:30:07.393Z,12.97
2019-03-24T13:32:36.023Z,10.23
2019-03-24T13:35:04.955Z,9.43
2019-03-24T13:37:33.563Z,7.57
2019-03-24T13:40:02.865Z,13.03
2019-03-24T13:42:31.535Z,13.97
2019-03-24T13:45:00.170Z,11.07
2019-03-24T13:47:29.008Z,10.80
2019-03-24T13:49:57.658Z,11.30
2019-03-24T13:52:26.280Z,11.93
2019-03-24T13:54:56.187Z,8.50
2019-03-24T13:57:24.745Z,9.33
2019-03-24T13:59:53.394Z,8.93
2019-03-24T14:02:22.031Z,10.00
2019-03-24T14:04:50.698Z,8.37
2019-03-24T14:07:19.267Z,8.17
2019-03-24T14:09:47.985Z,10.03
2019-03-24T14:12:16.597Z,8.37
2019-03-24T14:14:45.120Z,9.03
2019-03-24T14:17:13.672Z,8.13
2019-03-24T14:19:42.269Z,8.97
2019-03-24T14:22:11.015Z,7.73
2019-03-24T14:24:39.750Z,8.53
2019-03-24T14:27:08.462Z,5.37
2019-03-24T14:29:37.141Z,8.07
2019-03-24T14:32:06.111Z,7.83
2019-03-24T14:34:35.309Z,13.93
2019-03-24T14:37:04.156Z,9.03
2019-03-24T14:39:32.757Z,6.83
2019-03-24T14:42:01.395Z,6.37
2019-03-24T14:44:30.083Z,10.23
2019-03-24T14:46:58.754Z,9.87
2019-03-24T14:49:27.998Z,8.50
2019-03-24T14:51:56.634Z,9.83
2019-03-24T14:54:25.202Z,10.43
2019-03-24T14:56:53.775Z,9.53
2019-03-24T14:59:22.435Z,11.33
2019-03-24T15:01:51.131Z,9.17
2019-03-24T15:04:19.687Z,10.63
2019-03-24T15:06:48.293Z,9.15
2019-03-24T15:09:16.946Z,8.43
2019-03-24T15:11:45.613Z,10.60
2019-03-24T15:14:14.272Z,11.03
2019-03-24T15:16:42.902Z,65.13
2019-03-24T15:19:11.487Z,12.77
2019-03-24T15:21:40.120Z,8.60
2019-03-24T15:24:09.039Z,9.80
2019-03-24T15:26:37.599Z,17.33
2019-03-24T15:29:06.354Z,10.53
2019-03-24T15:31:35.031Z,21.07
2019-03-24T15:34:04.587Z,16.90
2019-03-24T15:36:33.152Z,24.77
2019-03-24T15:39:01.771Z,20.57
2019-03-24T15:41:30.478Z,31.20
2019-03-24T15:43:59.064Z,7.87
2019-03-24T15:46:27.702Z,11.37
2019-03-24T15:48:56.391Z,13.23
2019-03-24T15:51:25.237Z,8.10
2019-03-24T15:53:53.809Z,8.83
2019-03-24T15:56:22.423Z,8.57
2019-03-24T15:58:51.080Z,7.50
2019-03-24T16:01:19.865Z,8.00
2019-03-24T16:03:48.602Z,6.57
2019-03-24T16:06:17.248Z,8.27
2019-03-24T16:08:45.878Z,9.83
2019-03-24T16:11:16.128Z,8.10
2019-03-24T16:13:44.884Z,8.40
2019-03-24T16:16:13.924Z,10.00
2019-03-24T16:18:42.475Z,8.70
2019-03-24T16:21:11.125Z,9.40
2019-03-24T16:23:39.691Z,9.00
2019-03-24T16:26:08.342Z,7.90
2019-03-24T16:28:37.072Z,10.93
2019-03-24T16:31:05.772Z,9.97
2019-03-24T16:33:34.367Z,7.33
2019-03-24T16:36:03.221Z,7.47
2019-03-24T16:38:31.792Z,9.27
2019-03-24T16:41:00.399Z,9.03
2019-03-24T16:43:28.999Z,10.03
2019-03-24T16:45:57.613Z,7.80
2019-03-24T16:48:36.407Z,10.70
2019-03-24T16:50:56.453Z,9.07
2019-03-24T16:53:25.033Z,12.23
2019-03-24T16:55:53.601Z,8.60
2019-03-24T16:58:22.207Z,14.97
2019-03-24T17:00:50.828Z,17.10
2019-03-24T17:03:19.416Z,9.43
2019-03-24T17:05:48.548Z,10.50
2019-03-24T17:08:17.137Z,11.53
2019-03-24T17:10:45.801Z,13.33
2019-03-24T17:13:14.360Z,12.27
2019-03-24T17:15:43.026Z,9.80
2019-03-24T17:18:11.763Z,13.63
2019-03-24T17:20:40.427Z,11.23
2019-03-24T17:23:09.049Z,14.23
2019-03-24T17:25:37.707Z,9.17
2019-03-24T17:28:06.427Z,9.60
2019-03-24T17:30:35.010Z,16.40
2019-03-24T17:33:03.672Z,9.00
2019-03-24T17:35:32.220Z,8.07
2019-03-24T17:38:00.813Z,7.60
2019-03-24T17:40:29.529Z,10.37
2019-03-24T17:42:58.147Z,16.53
2019-03-24T17:45:26.864Z,12.20
2019-03-24T17:47:55.525Z,10.50
2019-03-24T17:50:24.176Z,11.23
2019-03-24T17:52:52.847Z,10.47
2019-03-24T17:55:27.647Z,9.93
2019-03-24T17:57:51.730Z,6.90
2019-03-24T18:00:40.700Z,11.60
2019-03-24T18:03:09.424Z,15.83
2019-03-24T18:05:38.208Z,7.30
2019-03-24T18:08:06.866Z,9.27
2019-03-24T18:10:35.843Z,11.10
2019-03-24T18:13:05.542Z,9.43
2019-03-24T18:15:34.664Z,10.57
2019-03-24T18:18:03.374Z,10.60
2019-03-24T18:20:33.615Z,10.37
2019-03-24T18:23:02.466Z,10.93
2019-03-24T18:25:31.459Z,12.93
2019-03-24T18:28:00.036Z,10.17
2019-03-24T18:30:28.720Z,10.83
2019-03-24T18:32:57.482Z,10.73
2019-03-24T18:35:26.125Z,12.87
2019-03-24T18:37:54.855Z,7.57
2019-03-24T18:40:23.404Z,12.93
2019-03-24T18:42:52.276Z,12.97
2019-03-24T18:45:21.003Z,13.10
2019-03-24T18:47:49.687Z,14.27
2019-03-24T18:50:18.403Z,12.33
2019-03-24T18:52:46.978Z,11.20
2019-03-24T18:55:16.161Z,13.83
2019-03-24T18:57:44.725Z,11.37
2019-03-24T19:00:14.962Z,13.87
2019-03-24T19:02:43.595Z,12.13
2019-03-24T19:05:12.618Z,15.53
2019-03-24T19:07:41.242Z,14.77
2019-03-24T19:10:12.274Z,13.53
2019-03-24T19:12:40.868Z,18.37
2019-03-24T19:15:15.028Z,14.40
2019-03-24T19:17:43.828Z,19.03
2019-03-24T19:20:14.056Z,17.13
2019-03-24T19:22:42.620Z,22.07
2019-03-24T19:25:11.584Z,10.73
2019-03-24T19:27:40.294Z,12.20
2019-03-24T19:30:14.912Z,14.43
2019-03-24T19:32:44.096Z,15.50
2019-03-24T19:35:13.308Z,16.43
2019-03-24T19:37:42.603Z,18.50
2019-03-24T19:40:26.014Z,12.67
2019-03-24T19:42:55.244Z,12.63
2019-03-24T19:45:23.908Z,14.80
2019-03-24T19:47:53.538Z,14.57
2019-03-24T19:50:22.184Z,15.07
2019-03-24T19:52:51.111Z,14.90
2019-03-24T19:55:19.836Z,16.05
2019-03-24T19:57:48.919Z,15.77
2019-03-24T20:00:18.002Z,12.23
2019-03-24T20:02:46.595Z,15.17
2019-03-24T20:05:15.246Z,11.67
2019-03-24T20:07:48.182Z,22.47
2019-03-24T20:10:14.441Z,13.50
2019-03-24T20:12:43.183Z,13.83
2019-03-24T20:15:12.218Z,10.45
2019-03-24T20:17:40.941Z,9.05
2019-03-24T20:20:10.332Z,12.80
2019-03-24T20:22:38.944Z,13.10
2019-03-24T20:25:08.128Z,15.33
2019-03-24T20:27:37.067Z,14.20
2019-03-24T20:30:10.572Z,14.87
2019-03-24T20:32:39.257Z,18.23
2019-03-24T20:35:08.259Z,10.30
2019-03-24T20:37:36.924Z,13.30
2019-03-24T20:40:08.835Z,13.67
2019-03-24T20:42:37.462Z,11.35
2019-03-24T20:45:07.960Z,9.33
2019-03-24T20:47:36.874Z,13.30
2019-03-24T20:50:07.785Z,14.90
2019-03-24T20:52:36.425Z,8.58
2019-03-24T20:55:08.034Z,8.13
2019-03-24T20:57:36.676Z,11.70
2019-03-24T21:00:07.474Z,10.57
2019-03-24T21:02:36.150Z,10.83
2019-03-24T21:05:05.969Z,13.28
2019-03-24T21:07:34.554Z,11.70
2019-03-24T21:10:04.085Z,12.37
2019-03-24T21:12:32.674Z,18.77
2019-03-24T21:15:01.330Z,22.33
2019-03-24T21:17:30.456Z,11.57
2019-03-24T21:19:59.022Z,19.87
2019-03-24T21:22:27.590Z,13.28
2019-03-24T21:24:56.197Z,13.83
2019-03-24T21:27:24.777Z,19.17
2019-03-24T21:29:53.359Z,19.53
2019-03-24T21:32:21.920Z,15.43
2019-03-24T21:34:50.511Z,22.23
2019-03-24T21:37:19.433Z,17.20
2019-03-24T21:39:47.995Z,23.93
2019-03-24T21:42:16.598Z,19.97
2019-03-24T21:44:45.236Z,19.50
2019-03-24T21:47:13.882Z,24.80
2019-03-24T21:49:42.451Z,17.87
2019-03-24T21:52:11.356Z,19.17
2019-03-24T21:54:40.278Z,18.30
2019-03-24T21:57:09.380Z,24.20
2019-03-24T21:59:38.058Z,17.48
2019-03-24T22:02:06.742Z,17.50
2019-03-24T22:04:35.327Z,27.60
2019-03-24T22:07:04.230Z,15.73
2019-03-24T22:09:32.813Z,21.95
2019-03-24T22:12:01.398Z,21.70
2019-03-24T22:14:29.996Z,22.17
2019-03-24T22:16:58.580Z,19.90
2019-03-24T22:19:27.235Z,15.48
2019-03-24T22:21:55.897Z,17.37
2019-03-24T22:24:24.498Z,22.35
2019-03-24T22:26:53.146Z,20.50
2019-03-24T22:29:22.035Z,21.63
2019-03-24T22:31:50.927Z,24.63
2019-03-24T22:34:19.479Z,19.37
2019-03-24T22:36:48.082Z,18.60
2019-03-24T22:39:16.726Z,23.73
2019-03-24T22:41:45.299Z,31.07
2019-03-24T22:44:13.900Z,23.37
2019-03-24T22:46:42.458Z,28.73
2019-03-24T22:49:11.074Z,21.57
2019-03-24T22:51:39.848Z,18.37
2019-03-24T22:54:08.499Z,19.87
2019-03-24T22:56:37.155Z,26.07
2019-03-24T22:59:05.745Z,14.10
2019-03-24T23:01:34.515Z,23.00
2019-03-24T23:04:03.486Z,20.45
2019-03-24T23:06:32.048Z,18.40
2019-03-24T23:09:00.690Z,20.50
2019-03-24T23:11:29.258Z,16.97
2019-03-24T23:13:57.830Z,19.85
2019-03-24T23:16:26.444Z,14.33
2019-03-24T23:18:55.021Z,17.40
2019-03-24T23:21:23.614Z,16.27
2019-03-24T23:23:52.271Z,14.00
2019-03-24T23:26:20.999Z,19.23
2019-03-24T23:28:49.567Z,15.58
2019-03-24T23:31:18.435Z,15.00
2019-03-24T23:33:47.076Z,19.70
2019-03-24T23:36:15.749Z,15.43
2019-03-24T23:38:44.406Z,17.25
2019-03-24T23:41:13.060Z,18.10
2019-03-24T23:43:41.722Z,15.53
2019-03-24T23:46:10.332Z,14.40
2019-03-24T23:48:38.950Z,20.35
2019-03-24T23:51:07.877Z,14.45
2019-03-24T23:53:36.568Z,16.65
2019-03-24T23:56:05.173Z,13.93
2019-03-24T23:58:40.938Z,15.10
